Time;durP1;ratioP1;P1;durP2;ratioP2;P2;SDS_P1;SDS_P2;PMS_P1;PMS_P2;Temp;Humidity;BMP_temperature;BMP_pressure;BME280_temperature;BME280_humidity;BME280_pressure;Samples;Min_cycle;Max_cycle;Signal;HPM_P1;HPM_P2
2023/07/14 04:02:56;;;;;;;2.73;2.57;;;14.60;97.30;;;;;;4931835;29;21068;-87
2023/07/14 04:05:21;;;;;;;2.20;1.90;;;14.60;97.30;;;;;;4962713;28;20431;-87
2023/07/14 04:07:47;;;;;;;1.57;1.47;;;14.70;97.30;;;;;;4953166;28;20807;-87
2023/07/14 04:10:12;;;;;;;2.10;2.00;;;14.70;97.30;;;;;;4952559;29;20189;-86
2023/07/14 04:12:38;;;;;;;6.23;2.27;;;14.70;97.30;;;;;;4953460;29;20210;-86
2023/07/14 04:15:04;;;;;;;4.57;2.40;;;14.70;97.30;;;;;;4955450;29;20190;-85
2023/07/14 04:17:31;;;;;;;2.90;2.70;;;14.80;97.30;;;;;;5006321;23;20653;-92
2023/07/14 04:19:57;;;;;;;2.23;2.03;;;14.80;97.30;;;;;;4970524;28;21058;-92
2023/07/14 04:22:30;;;;;;;1.80;1.67;;;14.80;97.30;;;;;;4974617;28;20446;-90
2023/07/14 04:24:58;;;;;;;3.03;2.27;;;14.90;97.30;;;;;;4967341;28;20200;-90
2023/07/14 04:27:33;;;;;;;3.90;2.77;;;14.90;97.30;;;;;;4965769;28;20500;-88
2023/07/14 04:29:59;;;;;;;3.17;2.50;;;14.90;97.30;;;;;;4957626;28;20924;-90
2023/07/14 04:32:39;;;;;;;2.00;1.90;;;15.00;97.30;;;;;;4953542;28;20805;-90
2023/07/14 04:35:07;;;;;;;1.77;1.70;;;15.00;97.30;;;;;;4958820;28;20876;-90
2023/07/14 04:37:35;;;;;;;2.63;1.90;;;15.00;97.30;;;;;;4962128;28;20458;-91
2023/07/14 04:40:02;;;;;;;3.00;2.77;;;15.00;97.30;;;;;;4964763;28;20521;-90
2023/07/14 04:42:27;;;;;;;1.63;1.57;;;15.10;97.30;;;;;;4965449;28;20422;-89
2023/07/14 04:44:53;;;;;;;2.20;2.07;;;15.10;97.30;;;;;;4956843;28;20458;-90
2023/07/14 04:47:18;;;;;;;2.63;2.23;;;15.20;97.30;;;;;;4958934;28;20203;-90
2023/07/14 04:49:44;;;;;;;1.83;1.80;;;15.20;97.30;;;;;;4961289;28;20201;-90
2023/07/14 04:52:09;;;;;;;1.37;1.27;;;15.20;97.30;;;;;;4962912;28;20240;-89
2023/07/14 04:54:37;;;;;;;1.80;1.67;;;15.30;97.30;;;;;;4962852;28;20189;-89
2023/07/14 04:57:10;;;;;;;2.20;2.03;;;15.30;97.30;;;;;;4946019;28;20215;-90
2023/07/14 04:59:38;;;;;;;2.13;1.87;;;15.40;97.30;;;;;;4952244;28;20454;-87
2023/07/14 05:02:11;;;;;;;2.80;1.90;;;15.40;97.30;;;;;;4943115;28;20518;-90
2023/07/14 05:04:42;;;;;;;2.33;2.20;;;15.50;97.30;;;;;;4954754;28;20454;-88
2023/07/14 05:07:10;;;;;;;4.77;3.13;;;15.50;97.30;;;;;;4951837;28;21008;-90
2023/07/14 05:09:39;;;;;;;4.37;2.37;;;15.60;97.30;;;;;;4938047;29;20454;-91
2023/07/14 05:12:08;;;;;;;2.40;1.87;;;15.60;97.30;;;;;;4953936;28;20430;-90
2023/07/14 05:14:41;;;;;;;3.07;2.23;;;15.70;97.30;;;;;;4962374;28;20434;-89
2023/07/14 05:17:09;;;;;;;1.47;1.40;;;15.80;97.30;;;;;;4945567;28;20473;-92
2023/07/14 05:19:58;;;;;;;2.23;2.10;;;15.90;97.30;;;;;;4950641;28;20438;-85
2023/07/14 05:22:31;;;;;;;15.87;3.00;;;15.90;97.30;;;;;;4940048;28;20501;-87
2023/07/14 05:24:57;;;;;;;6.97;2.37;;;16.00;97.30;;;;;;4955346;28;21045;-86
2023/07/14 05:27:30;;;;;;;4.90;2.90;;;16.10;97.30;;;;;;4951812;28;20542;-89
2023/07/14 05:29:58;;;;;;;10.60;2.73;;;16.20;97.30;;;;;;4953087;28;20576;-87
2023/07/14 05:32:29;;;;;;;2.93;2.73;;;16.20;97.30;;;;;;4957629;28;20438;-87
2023/07/14 05:34:59;;;;;;;4.00;2.47;;;16.30;97.30;;;;;;4951504;28;20427;-86
2023/07/14 05:37:32;;;;;;;3.10;2.50;;;16.30;97.30;;;;;;4951866;28;20453;-86
2023/07/14 05:39:58;;;;;;;2.33;2.13;;;16.40;97.30;;;;;;4942402;28;20427;-88
2023/07/14 05:42:26;;;;;;;3.53;1.97;;;16.50;97.30;;;;;;4952058;28;20627;-88
2023/07/14 05:44:51;;;;;;;3.10;2.00;;;16.60;97.30;;;;;;4951423;28;20835;-88
2023/07/14 05:47:23;;;;;;;2.03;1.80;;;16.60;97.30;;;;;;4951517;28;20479;-89
2023/07/14 05:50:01;;;;;;;2.27;2.07;;;16.70;97.30;;;;;;4954026;28;20661;-89
2023/07/14 05:52:30;;;;;;;2.53;2.33;;;16.80;97.30;;;;;;4960201;28;20432;-86
2023/07/14 05:54:58;;;;;;;3.07;1.93;;;16.80;97.30;;;;;;4956435;28;20423;-87
2023/07/14 05:58:07;;;;;;;2.70;1.83;;;16.90;97.30;;;;;;4953456;28;20980;-88
2023/07/14 06:00:30;;;;;;;2.37;2.20;;;17.00;97.30;;;;;;4951088;29;20426;-85
2023/07/14 06:02:58;;;;;;;4.10;1.90;;;17.00;97.30;;;;;;4957051;29;20515;-88
2023/07/14 06:05:29;;;;;;;1.40;1.30;;;17.10;97.30;;;;;;4944357;28;20435;-86
2023/07/14 06:07:58;;;;;;;2.17;1.93;;;17.20;97.30;;;;;;4956203;29;20419;-88
2023/07/14 06:10:40;;;;;;;2.53;2.00;;;17.20;97.30;;;;;;4956477;29;20418;-85
2023/07/14 06:13:07;;;;;;;2.03;1.60;;;17.30;97.30;;;;;;4956496;29;20894;-88
2023/07/14 06:15:33;;;;;;;2.27;1.90;;;17.40;97.30;;;;;;4956251;29;20798;-87
2023/07/14 06:17:58;;;;;;;2.27;2.07;;;17.40;97.30;;;;;;4945232;28;20432;-88
2023/07/14 06:20:32;;;;;;;1.97;1.87;;;17.50;97.30;;;;;;4957937;28;20592;-85
2023/07/14 06:22:58;;;;;;;2.80;1.93;;;17.50;97.30;;;;;;4955401;28;20716;-89
2023/07/14 06:25:29;;;;;;;2.13;1.97;;;17.60;97.30;;;;;;4954153;28;20514;-88
2023/07/14 06:27:54;;;;;;;3.30;1.97;;;17.70;97.30;;;;;;4953493;28;20222;-86
2023/07/14 06:30:25;;;;;;;2.70;2.13;;;17.80;97.00;;;;;;4952830;28;20458;-88
2023/07/14 06:32:51;;;;;;;2.30;2.10;;;17.80;97.30;;;;;;4957807;28;20187;-88
2023/07/14 06:35:18;;;;;;;2.27;2.07;;;17.90;96.90;;;;;;4943120;29;20432;-89
2023/07/14 06:37:51;;;;;;;1.20;1.10;;;18.00;96.80;;;;;;4952950;28;20454;-89
2023/07/14 06:40:20;;;;;;;2.67;2.47;;;18.10;96.70;;;;;;4950201;28;20436;-90
2023/07/14 06:42:49;;;;;;;2.17;1.80;;;18.20;96.80;;;;;;4958640;28;20430;-90
2023/07/14 06:45:15;;;;;;;2.20;1.90;;;18.30;96.00;;;;;;4944695;28;21012;-89
2023/07/14 06:47:41;;;;;;;3.03;2.57;;;18.40;95.80;;;;;;4955419;28;20474;-89
2023/07/14 06:50:07;;;;;;;2.20;1.97;;;18.40;95.70;;;;;;4948310;28;20427;-90
2023/07/14 06:52:38;;;;;;;2.20;1.83;;;18.60;95.70;;;;;;4963650;28;20183;-92
2023/07/14 06:55:09;;;;;;;4.40;2.30;;;18.70;95.20;;;;;;4951409;28;20454;-92
2023/07/14 06:57:49;;;;;;;23.63;2.87;;;18.80;94.90;;;;;;4962794;28;20446;-91
2023/07/14 07:00:18;;;;;;;3.10;1.97;;;18.80;94.50;;;;;;4950994;28;20431;-92
2023/07/14 07:02:49;;;;;;;4.97;1.87;;;18.90;93.40;;;;;;4937055;29;20713;-89
2023/07/14 07:05:22;;;;;;;3.53;2.33;;;19.00;93.70;;;;;;4940269;28;20455;-89
2023/07/14 07:07:47;;;;;;;1.33;1.23;;;19.10;93.50;;;;;;4947803;28;20435;-91
2023/07/14 07:10:15;;;;;;;1.60;1.50;;;19.20;93.20;;;;;;4954783;28;20461;-89
2023/07/14 07:12:41;;;;;;;1.93;1.83;;;19.30;93.00;;;;;;4948581;28;20176;-89
2023/07/14 07:15:09;;;;;;;2.80;1.87;;;19.40;92.60;;;;;;4965360;28;20991;-89
2023/07/14 07:17:38;;;;;;;5.20;1.87;;;19.50;91.80;;;;;;4951833;28;20235;-90
2023/07/14 07:20:07;;;;;;;4.03;1.77;;;19.60;91.50;;;;;;4955357;28;20431;-89
2023/07/14 07:22:33;;;;;;;1.90;1.83;;;19.70;91.50;;;;;;4949178;28;20434;-89
2023/07/14 07:24:59;;;;;;;2.40;1.50;;;19.80;91.40;;;;;;4954767;28;20470;-90
2023/07/14 07:27:25;;;;;;;1.37;1.30;;;19.80;91.10;;;;;;4958753;28;20449;-89
2023/07/14 07:29:50;;;;;;;1.47;1.37;;;19.90;91.00;;;;;;4956737;28;20199;-89
2023/07/14 07:32:16;;;;;;;2.40;1.40;;;20.00;90.60;;;;;;4947794;28;20175;-89
2023/07/14 07:34:42;;;;;;;1.30;1.20;;;20.10;90.10;;;;;;4947086;28;20202;-88
2023/07/14 07:37:09;;;;;;;1.30;1.30;;;20.20;90.10;;;;;;4947774;28;20828;-89
2023/07/14 07:39:34;;;;;;;2.80;1.40;;;20.30;89.80;;;;;;4949009;28;20439;-89
2023/07/14 07:42:00;;;;;;;2.77;2.03;;;20.40;89.70;;;;;;4945345;28;20431;-89
2023/07/14 07:44:25;;;;;;;1.80;1.47;;;20.50;88.20;;;;;;4954292;28;20211;-90
2023/07/14 07:46:51;;;;;;;4.70;2.20;;;20.60;88.80;;;;;;4938978;29;20200;-90
2023/07/14 07:49:17;;;;;;;9.40;1.97;;;20.80;88.80;;;;;;4943142;28;20188;-88
2023/07/14 07:51:42;;;;;;;1.40;1.30;;;20.80;87.00;;;;;;4956445;28;20568;-89
2023/07/14 07:54:08;;;;;;;1.53;1.40;;;20.90;87.10;;;;;;4939797;28;20199;-89
2023/07/14 07:56:34;;;;;;;2.43;1.63;;;21.00;86.90;;;;;;4945278;28;20567;-91
2023/07/14 07:58:59;;;;;;;1.20;1.20;;;21.10;86.70;;;;;;4946810;28;20193;-88
2023/07/14 08:01:27;;;;;;;1.70;1.40;;;21.10;87.00;;;;;;4949783;28;20427;-89
2023/07/14 08:03:53;;;;;;;2.00;1.47;;;21.20;86.80;;;;;;4943686;28;20202;-88
2023/07/14 08:06:21;;;;;;;1.93;1.90;;;21.30;86.80;;;;;;4943845;28;20539;-89
2023/07/14 08:08:47;;;;;;;1.30;1.20;;;21.30;85.50;;;;;;4943948;28;20191;-89
2023/07/14 08:11:14;;;;;;;3.00;1.97;;;21.40;85.60;;;;;;4959066;28;20420;-87
2023/07/14 08:13:40;;;;;;;1.40;1.40;;;21.40;84.90;;;;;;4942846;28;20238;-88
2023/07/14 08:16:06;;;;;;;4.17;1.53;;;21.50;85.10;;;;;;4934965;29;20530;-88
2023/07/14 08:18:32;;;;;;;2.17;1.40;;;21.60;84.80;;;;;;4940297;29;20445;-89
2023/07/14 08:20:58;;;;;;;1.50;1.40;;;21.70;85.70;;;;;;4937931;28;20700;-89
2023/07/14 08:23:24;;;;;;;2.00;1.90;;;21.70;84.80;;;;;;4946484;28;20211;-89
2023/07/14 08:26:01;;;;;;;1.63;1.40;;;21.80;84.60;;;;;;4945406;28;20466;-90
2023/07/14 08:28:27;;;;;;;1.57;1.40;;;21.90;83.50;;;;;;4957181;28;20658;-89
2023/07/14 08:30:55;;;;;;;1.50;1.40;;;22.00;84.90;;;;;;4950394;28;20420;-89
2023/07/14 08:33:23;;;;;;;1.40;1.30;;;22.10;85.20;;;;;;4949748;28;20448;-90
2023/07/14 08:35:53;;;;;;;2.90;1.67;;;22.20;84.70;;;;;;4942479;28;20443;-89
2023/07/14 08:38:19;;;;;;;1.00;0.90;;;22.20;84.30;;;;;;4943839;28;20439;-89
2023/07/14 08:40:52;;;;;;;4.40;1.33;;;22.30;84.20;;;;;;4934262;29;21004;-89
2023/07/14 08:43:35;;;;;;;2.90;1.50;;;22.40;83.70;;;;;;4945751;28;20466;-88
2023/07/14 08:46:16;;;;;;;5.47;1.67;;;22.50;83.50;;;;;;4951882;28;20458;-89
2023/07/14 08:48:52;;;;;;;3.17;2.33;;;22.60;82.80;;;;;;4941178;28;20431;-90
2023/07/14 08:51:32;;;;;;;1.33;1.23;;;22.70;82.60;;;;;;4934511;29;20522;-88
2023/07/14 08:54:02;;;;;;;2.90;1.50;;;22.80;82.40;;;;;;4943326;28;20499;-89
2023/07/14 08:56:33;;;;;;;1.97;1.73;;;22.80;82.40;;;;;;4953373;28;20462;-91
2023/07/14 08:58:59;;;;;;;1.23;1.20;;;22.80;83.00;;;;;;4945626;28;20949;-89
2023/07/14 09:01:52;;;;;;;1.50;1.40;;;23.00;83.40;;;;;;4944756;28;20510;-89
2023/07/14 09:04:24;;;;;;;1.20;1.10;;;23.10;82.80;;;;;;4950267;28;20528;-89
2023/07/14 09:06:50;;;;;;;1.70;1.60;;;23.30;82.00;;;;;;4949848;28;20455;-89
2023/07/14 09:09:31;;;;;;;3.53;1.60;;;23.40;80.80;;;;;;4944482;28;20498;-88
2023/07/14 09:11:57;;;;;;;2.97;1.80;;;23.50;81.70;;;;;;4960520;28;20856;-90
2023/07/14 09:14:57;;;;;;;2.00;1.30;;;23.60;82.00;;;;;;4941845;28;20434;-89
2023/07/14 09:17:43;;;;;;;4.10;1.90;;;23.70;81.10;;;;;;4932717;28;20659;-89
2023/07/14 09:20:23;;;;;;;1.10;1.00;;;23.70;80.80;;;;;;4936859;28;20439;-91
2023/07/14 09:23:08;;;;;;;2.97;1.97;;;23.80;81.40;;;;;;4953051;28;20418;-89
2023/07/14 09:25:53;;;;;;;2.07;1.27;;;23.80;80.90;;;;;;4949575;28;20517;-89
2023/07/14 09:28:23;;;;;;;1.47;1.40;;;23.90;80.50;;;;;;4952309;28;20410;-91
2023/07/14 09:30:50;;;;;;;1.57;1.47;;;24.00;80.60;;;;;;4960424;28;20423;-90
2023/07/14 09:33:18;;;;;;;3.10;1.80;;;24.10;79.40;;;;;;4950591;28;20420;-88
2023/07/14 09:35:45;;;;;;;2.90;1.70;;;24.20;79.50;;;;;;4933558;29;20430;-89
2023/07/14 09:38:27;;;;;;;2.87;1.53;;;24.20;80.00;;;;;;4962982;28;20473;-89
2023/07/14 09:40:59;;;;;;;2.70;2.13;;;24.40;79.70;;;;;;4961930;28;20488;-88
2023/07/14 09:43:25;;;;;;;1.33;1.23;;;24.50;78.80;;;;;;4942484;28;20454;-88
2023/07/14 09:46:01;;;;;;;1.90;1.70;;;24.50;79.20;;;;;;4958321;28;20451;-90
2023/07/14 09:48:40;;;;;;;1.30;1.20;;;24.50;78.10;;;;;;4957243;28;20430;-89
2023/07/14 09:51:15;;;;;;;2.80;1.50;;;24.50;79.30;;;;;;4955283;28;20424;-88
2023/07/14 09:54:07;;;;;;;4.00;1.50;;;24.50;77.90;;;;;;4953614;29;20501;-90
2023/07/14 09:56:37;;;;;;;1.57;1.53;;;24.50;77.20;;;;;;4952443;29;20470;-89
2023/07/14 09:59:05;;;;;;;1.90;1.80;;;24.50;77.40;;;;;;4948878;28;20419;-88
2023/07/14 10:01:32;;;;;;;1.90;1.80;;;24.40;77.50;;;;;;4958923;28;20469;-90
2023/07/14 10:04:12;;;;;;;2.20;1.70;;;24.50;77.70;;;;;;4959260;28;20458;-90
2023/07/14 10:06:38;;;;;;;1.30;1.20;;;24.50;77.30;;;;;;4957903;28;20441;-88
2023/07/14 10:09:10;;;;;;;2.10;1.53;;;24.50;76.60;;;;;;4958240;28;20419;-91
2023/07/14 10:11:43;;;;;;;1.33;1.30;;;24.50;77.10;;;;;;4957442;28;20187;-89
2023/07/14 10:14:19;;;;;;;2.60;1.83;;;24.60;78.10;;;;;;4949410;28;20431;-90
2023/07/14 10:16:46;;;;;;;1.83;1.73;;;24.70;76.80;;;;;;5010887;23;21262;-81
2023/07/14 10:19:21;;;;;;;1.73;1.43;;;24.80;75.70;;;;;;4962340;28;20474;-81
2023/07/14 10:21:54;;;;;;;1.73;1.60;;;24.90;76.00;;;;;;4971544;28;20459;-85
2023/07/14 10:24:20;;;;;;;1.43;1.37;;;24.90;76.40;;;;;;4960284;28;20471;-82
2023/07/14 10:26:52;;;;;;;1.87;1.10;;;25.00;76.00;;;;;;4954265;28;20438;-81
2023/07/14 10:29:21;;;;;;;2.63;2.13;;;25.10;76.10;;;;;;4971656;28;20429;-83
2023/07/14 10:32:00;;;;;;;2.50;2.30;;;25.00;76.00;;;;;;4966201;28;20521;-82
2023/07/14 10:34:52;;;;;;;5.03;1.90;;;25.10;76.40;;;;;;4957828;28;20843;-78
2023/07/14 10:37:28;;;;;;;2.50;1.47;;;25.20;77.40;;;;;;4970069;28;20516;-78
2023/07/14 10:40:05;;;;;;;1.50;1.40;;;25.40;75.70;;;;;;4969765;28;20789;-82
2023/07/14 10:42:35;;;;;;;1.50;1.40;;;25.40;75.30;;;;;;4964682;28;20612;-83
2023/07/14 10:45:02;;;;;;;3.37;1.77;;;25.40;76.10;;;;;;4971295;28;20484;-82
2023/07/14 10:47:36;;;;;;;2.77;1.90;;;25.40;75.90;;;;;;4971028;28;20512;-83
2023/07/14 10:50:15;;;;;;;2.70;2.10;;;25.30;76.30;;;;;;4971024;28;20487;-80
2023/07/14 10:52:44;;;;;;;2.50;1.93;;;25.30;75.60;;;;;;4968039;28;20547;-81
2023/07/14 10:55:29;;;;;;;2.20;1.20;;;25.30;75.60;;;;;;4970785;28;20945;-81
2023/07/14 10:58:43;;;;;;;3.00;1.27;;;25.20;75.40;;;;;;4972215;28;20426;-82
2023/07/14 11:01:18;;;;;;;1.73;1.40;;;25.20;75.50;;;;;;4981129;28;20492;-80
2023/07/14 11:04:12;;;;;;;1.63;1.53;;;25.30;75.30;;;;;;4969962;28;20507;-83
2023/07/14 11:06:43;;;;;;;2.47;2.00;;;25.40;76.50;;;;;;4957196;28;20437;-81
2023/07/14 11:09:12;;;;;;;1.57;1.47;;;25.60;75.30;;;;;;4944706;28;20442;-82
2023/07/14 11:11:44;;;;;;;2.80;2.40;;;25.70;74.90;;;;;;4971198;28;20437;-80
2023/07/14 11:14:47;;;;;;;1.33;1.10;;;25.80;73.60;;;;;;4970645;28;20857;-82
2023/07/14 11:17:24;;;;;;;4.10;1.80;;;25.90;73.50;;;;;;4961861;28;20532;-82
2023/07/14 11:19:57;;;;;;;1.97;1.50;;;25.80;72.50;;;;;;4966799;28;20752;-80
2023/07/14 11:22:46;;;;;;;1.27;1.17;;;25.90;72.80;;;;;;4972027;28;20448;-83
2023/07/14 11:25:17;;;;;;;1.20;1.10;;;25.90;74.60;;;;;;4970905;28;20898;-81
2023/07/14 11:27:55;;;;;;;1.50;1.17;;;26.00;73.60;;;;;;4964799;28;20570;-83
2023/07/14 11:30:42;;;;;;;2.70;2.10;;;26.00;73.20;;;;;;4970992;28;20437;-83
2023/07/14 11:33:16;;;;;;;1.73;1.63;;;26.10;73.50;;;;;;4957920;28;20918;-83
2023/07/14 11:35:56;;;;;;;1.47;1.00;;;26.10;72.50;;;;;;4966857;28;20455;-82
2023/07/14 11:39:05;;;;;;;1.20;1.20;;;26.00;72.80;;;;;;4969411;28;20430;-82
2023/07/14 11:41:33;;;;;;;6.43;1.90;;;25.90;72.70;;;;;;4964380;28;20445;-82
2023/07/14 11:44:02;;;;;;;2.07;1.20;;;25.80;73.50;;;;;;4947139;28;20481;-83
2023/07/14 11:46:29;;;;;;;2.13;1.93;;;25.70;73.70;;;;;;4955458;28;20418;-82
2023/07/14 11:48:54;;;;;;;3.03;1.30;;;25.70;74.20;;;;;;4967374;28;20422;-82
2023/07/14 11:51:41;;;;;;;1.87;1.30;;;25.70;74.60;;;;;;4969883;28;21342;-81
2023/07/14 11:54:13;;;;;;;1.73;1.57;;;25.70;74.20;;;;;;4969209;28;20190;-81
2023/07/14 11:56:40;;;;;;;1.40;1.30;;;25.70;73.50;;;;;;4970144;28;20532;-81
2023/07/14 11:59:20;;;;;;;1.50;1.40;;;25.70;73.30;;;;;;4970390;28;20444;-81
2023/07/14 12:01:52;;;;;;;1.47;1.20;;;25.60;73.20;;;;;;4970765;28;20667;-82
2023/07/14 12:04:28;;;;;;;1.33;1.30;;;25.70;74.20;;;;;;4970342;28;20586;-83
2023/07/14 12:07:16;;;;;;;2.30;1.63;;;25.70;75.10;;;;;;4971319;28;20422;-83
2023/07/14 12:10:00;;;;;;;1.40;1.30;;;25.80;74.90;;;;;;4967909;28;20429;-82
2023/07/14 12:12:26;;;;;;;5.43;1.27;;;25.90;73.50;;;;;;4970968;28;20499;-83
2023/07/14 12:14:52;;;;;;;1.87;1.53;;;26.20;74.30;;;;;;4964864;28;20454;-83
2023/07/14 12:17:36;;;;;;;3.07;1.97;;;26.30;74.10;;;;;;4968628;28;20500;-83
2023/07/14 12:20:11;;;;;;;1.13;1.00;;;26.40;72.30;;;;;;4969079;28;20430;-83
2023/07/14 12:22:38;;;;;;;2.03;1.60;;;26.60;73.80;;;;;;4962783;28;20413;-82
2023/07/14 12:25:10;;;;;;;1.73;1.67;;;26.70;70.40;;;;;;4966670;28;20984;-79
2023/07/14 12:27:38;;;;;;;5.10;2.20;;;26.70;70.50;;;;;;4967047;28;20434;-83
2023/07/14 12:30:21;;;;;;;1.87;1.07;;;26.80;70.50;;;;;;4958726;28;20518;-85
2023/07/14 12:32:47;;;;;;;2.60;2.07;;;26.90;69.80;;;;;;4950422;28;20418;-83
2023/07/14 12:35:15;;;;;;;1.77;1.17;;;26.90;70.00;;;;;;4967015;28;20442;-84
2023/07/14 12:37:41;;;;;;;1.90;1.20;;;27.00;69.70;;;;;;4967194;28;20513;-85
2023/07/14 12:40:25;;;;;;;5.90;1.73;;;27.20;70.50;;;;;;4967363;28;20498;-84
2023/07/14 12:42:52;;;;;;;2.00;1.47;;;27.40;70.50;;;;;;4968990;28;20456;-84
2023/07/14 12:45:20;;;;;;;1.87;1.47;;;27.50;71.70;;;;;;4969887;28;20466;-85
2023/07/14 12:47:52;;;;;;;1.43;1.33;;;27.50;71.60;;;;;;4970723;28;20418;-85
2023/07/14 12:50:24;;;;;;;7.17;1.80;;;27.70;71.60;;;;;;4968413;28;20440;-84
2023/07/14 12:52:50;;;;;;;6.10;1.73;;;27.90;71.30;;;;;;4969761;28;20441;-84
2023/07/14 12:55:18;;;;;;;1.60;1.30;;;28.10;71.40;;;;;;4970668;28;20433;-84
2023/07/14 12:57:46;;;;;;;8.10;1.50;;;28.10;69.30;;;;;;4969025;28;20236;-85
2023/07/14 13:00:32;;;;;;;2.13;1.93;;;28.00;69.50;;;;;;4973016;28;20432;-84
2023/07/14 13:02:59;;;;;;;1.83;1.40;;;28.00;69.20;;;;;;4973834;28;20425;-85
2023/07/14 13:05:35;;;;;;;3.20;1.77;;;27.90;70.00;;;;;;4973775;28;20480;-82
2023/07/14 13:08:04;;;;;;;2.00;1.40;;;27.80;69.00;;;;;;4976200;28;20834;-85
2023/07/14 13:10:43;;;;;;;4.50;1.80;;;27.60;69.90;;;;;;4966712;28;20481;-85
2023/07/14 13:13:16;;;;;;;3.93;2.03;;;27.70;70.20;;;;;;4976043;28;20472;-85
2023/07/14 13:15:43;;;;;;;2.60;1.63;;;27.70;70.20;;;;;;4974478;28;20426;-85
2023/07/14 13:18:18;;;;;;;1.57;1.30;;;27.70;70.40;;;;;;4964990;28;20477;-85
2023/07/14 13:20:44;;;;;;;1.30;1.20;;;27.70;68.30;;;;;;4964036;28;20961;-84
2023/07/14 13:23:09;;;;;;;3.40;1.50;;;27.60;68.60;;;;;;4971497;28;20426;-84
2023/07/14 13:25:43;;;;;;;3.57;1.73;;;27.50;68.80;;;;;;4970008;28;20716;-84
2023/07/14 13:28:34;;;;;;;2.00;1.53;;;27.50;68.90;;;;;;4972602;28;20189;-84
2023/07/14 13:31:02;;;;;;;1.20;1.20;;;27.30;68.70;;;;;;4964403;28;20450;-84
2023/07/14 13:33:28;;;;;;;2.70;2.00;;;27.20;69.20;;;;;;4972207;28;20426;-84
2023/07/14 13:36:18;;;;;;;1.20;1.10;;;27.30;70.00;;;;;;4971111;28;20829;-84
2023/07/14 13:38:45;;;;;;;1.10;1.00;;;27.40;69.80;;;;;;4966168;28;20193;-83
2023/07/14 13:41:22;;;;;;;2.40;2.00;;;27.50;69.30;;;;;;4966192;28;20466;-83
2023/07/14 13:43:48;;;;;;;3.30;1.60;;;27.50;69.00;;;;;;4971597;28;20974;-83
2023/07/14 13:46:28;;;;;;;2.40;1.63;;;27.50;68.40;;;;;;4971814;28;20434;-83
2023/07/14 13:49:03;;;;;;;1.90;1.33;;;27.40;68.80;;;;;;4966257;28;20241;-84
2023/07/14 13:51:29;;;;;;;2.00;1.50;;;27.40;69.10;;;;;;4971767;28;20445;-83
2023/07/14 13:53:56;;;;;;;1.43;1.33;;;27.40;69.80;;;;;;4972673;28;20929;-83
2023/07/14 13:56:24;;;;;;;1.20;1.10;;;27.50;69.10;;;;;;4973397;28;20560;-83
2023/07/14 13:58:50;;;;;;;1.97;1.50;;;27.50;68.60;;;;;;4972139;28;20430;-82
2023/07/14 14:01:23;;;;;;;1.50;1.40;;;27.50;68.40;;;;;;4973496;28;20575;-82
2023/07/14 14:03:50;;;;;;;1.57;1.47;;;27.50;68.30;;;;;;4972316;28;20461;-83
2023/07/14 14:06:16;;;;;;;1.40;1.30;;;27.50;68.20;;;;;;4972082;28;20417;-82
2023/07/14 14:08:42;;;;;;;2.00;1.00;;;27.40;67.90;;;;;;4972652;28;20418;-82
2023/07/14 14:11:08;;;;;;;1.20;1.10;;;27.40;67.90;;;;;;4971784;28;20480;-83
2023/07/14 14:13:35;;;;;;;1.33;1.20;;;27.50;68.50;;;;;;4971143;28;20521;-82
2023/07/14 14:16:05;;;;;;;4.00;2.30;;;27.70;68.00;;;;;;4972098;28;20182;-82
2023/07/14 14:18:32;;;;;;;1.83;1.40;;;28.00;68.00;;;;;;4971159;28;20480;-81
2023/07/14 14:20:58;;;;;;;1.20;1.10;;;28.40;66.90;;;;;;4971316;28;20454;-81
2023/07/14 14:23:25;;;;;;;2.27;2.03;;;28.60;66.70;;;;;;4970939;28;20457;-81
2023/07/14 14:25:51;;;;;;;3.83;1.73;;;28.90;66.40;;;;;;4965905;28;20492;-78
2023/07/14 14:28:17;;;;;;;1.83;1.60;;;29.10;65.40;;;;;;4970948;28;20830;-81
2023/07/14 14:30:46;;;;;;;1.70;1.23;;;29.30;65.50;;;;;;4972247;28;20281;-82
2023/07/14 14:33:16;;;;;;;1.50;1.40;;;29.50;65.50;;;;;;4972316;28;20410;-80
2023/07/14 14:35:41;;;;;;;1.20;1.13;;;29.70;64.60;;;;;;4968543;28;20500;-80
2023/07/14 14:38:14;;;;;;;1.37;1.37;;;29.90;65.10;;;;;;4963012;28;20485;-80
2023/07/14 14:40:41;;;;;;;1.57;1.47;;;30.00;64.50;;;;;;4955939;28;20285;-81
2023/07/14 14:43:22;;;;;;;4.03;1.73;;;29.90;63.40;;;;;;4971993;28;20430;-82
2023/07/14 14:45:52;;;;;;;1.30;1.20;;;29.70;63.70;;;;;;4960310;28;20967;-83
2023/07/14 14:48:21;;;;;;;1.70;1.43;;;29.50;64.10;;;;;;4968214;28;20453;-82
2023/07/14 14:50:48;;;;;;;1.83;1.67;;;29.40;64.70;;;;;;4953200;28;20466;-81
2023/07/14 14:53:17;;;;;;;4.33;2.43;;;29.30;63.90;;;;;;4952795;28;20415;-81
2023/07/14 14:55:44;;;;;;;7.40;1.70;;;29.20;64.60;;;;;;4962308;28;20509;-81
2023/07/14 14:58:23;;;;;;;1.80;1.70;;;29.10;65.20;;;;;;4962993;28;20429;-75
2023/07/14 15:00:55;;;;;;;2.97;1.30;;;29.00;66.10;;;;;;4952497;28;20427;-83
2023/07/14 15:03:22;;;;;;;1.50;1.40;;;28.70;65.30;;;;;;4951776;28;20862;-85
2023/07/14 15:05:48;;;;;;;6.40;1.70;;;28.60;65.40;;;;;;4965390;28;20505;-83
2023/07/14 15:08:13;;;;;;;1.63;1.40;;;28.50;66.10;;;;;;4947513;28;20422;-85
2023/07/14 15:10:40;;;;;;;2.00;1.20;;;28.40;66.70;;;;;;4971175;28;20502;-84
2023/07/14 15:13:16;;;;;;;2.13;1.83;;;28.40;67.10;;;;;;4968632;28;20591;-84
2023/07/14 15:15:42;;;;;;;1.37;1.30;;;28.30;67.40;;;;;;4970100;28;20423;-81
2023/07/14 15:18:11;;;;;;;2.20;1.30;;;28.40;67.50;;;;;;4962395;28;20474;-84
2023/07/14 15:20:37;;;;;;;1.50;1.47;;;28.40;67.80;;;;;;4962277;28;20788;-83
2023/07/14 15:23:03;;;;;;;3.73;1.70;;;28.40;68.00;;;;;;4941536;28;20427;-84
2023/07/14 15:25:33;;;;;;;1.83;1.50;;;28.30;68.00;;;;;;4952078;28;20722;-84
2023/07/14 15:27:58;;;;;;;1.23;1.13;;;28.20;68.00;;;;;;4955935;28;20567;-84
2023/07/14 15:30:30;;;;;;;1.47;1.43;;;28.20;68.00;;;;;;4970141;28;20517;-84
2023/07/14 15:32:58;;;;;;;4.50;2.10;;;28.10;66.70;;;;;;4957485;28;20191;-85
2023/07/14 15:35:27;;;;;;;1.93;1.77;;;28.10;68.40;;;;;;4963012;28;20438;-86
2023/07/14 15:37:55;;;;;;;2.73;1.57;;;28.10;68.90;;;;;;4965229;28;20934;-85
2023/07/14 15:40:47;;;;;;;2.60;2.30;;;28.00;68.80;;;;;;4952905;28;20419;-85
2023/07/14 15:43:25;;;;;;;1.30;1.30;;;28.00;68.10;;;;;;4962053;28;20426;-85
2023/07/14 15:45:53;;;;;;;2.90;1.83;;;28.00;67.10;;;;;;4966305;28;20434;-86
2023/07/14 15:48:23;;;;;;;2.57;1.73;;;28.00;68.70;;;;;;4961493;28;20431;-85
2023/07/14 15:50:53;;;;;;;1.60;1.50;;;27.90;69.40;;;;;;4950618;28;20466;-85
2023/07/14 15:53:22;;;;;;;2.70;2.20;;;27.90;69.50;;;;;;4968132;28;20414;-84
2023/07/14 15:55:48;;;;;;;1.57;1.50;;;27.80;69.60;;;;;;4971745;28;20714;-86
2023/07/14 15:58:26;;;;;;;2.13;1.50;;;27.70;69.50;;;;;;4970578;28;20422;-85
2023/07/14 16:00:54;;;;;;;1.67;1.53;;;27.70;69.00;;;;;;4962398;28;20221;-85
2023/07/14 16:03:21;;;;;;;3.13;1.43;;;27.60;69.20;;;;;;4966105;28;20426;-85
2023/07/14 16:05:50;;;;;;;1.40;1.30;;;27.60;69.60;;;;;;4969207;28;20478;-84
2023/07/14 16:08:34;;;;;;;1.83;1.63;;;27.60;68.70;;;;;;4951614;28;20419;-82
2023/07/14 16:11:01;;;;;;;2.77;1.83;;;27.50;68.50;;;;;;4969204;28;20458;-84
2023/07/14 16:13:27;;;;;;;1.53;1.40;;;27.50;68.70;;;;;;4967092;28;20418;-83
2023/07/14 16:15:53;;;;;;;3.10;2.03;;;27.50;68.70;;;;;;4969864;28;20961;-81
2023/07/14 16:18:18;;;;;;;3.00;1.90;;;27.50;68.90;;;;;;4969823;28;20234;-83
2023/07/14 16:20:48;;;;;;;1.50;1.50;;;27.50;68.40;;;;;;4964497;28;20222;-85
2023/07/14 16:23:23;;;;;;;1.30;1.10;;;27.50;68.70;;;;;;4968052;28;20430;-84
2023/07/14 16:25:48;;;;;;;1.37;1.27;;;27.60;69.10;;;;;;4962367;28;20432;-84
2023/07/14 16:28:15;;;;;;;1.53;1.47;;;27.60;69.80;;;;;;4969000;28;20922;-84
2023/07/14 16:30:42;;;;;;;1.13;1.03;;;27.70;69.30;;;;;;4962982;28;20209;-85
2023/07/14 16:33:08;;;;;;;2.30;1.77;;;27.60;69.30;;;;;;4969118;28;20509;-84
2023/07/14 16:35:35;;;;;;;2.20;1.63;;;27.60;70.40;;;;;;4966117;28;20562;-85
2023/07/14 16:38:02;;;;;;;2.50;1.83;;;27.50;70.10;;;;;;4968680;28;20471;-84
2023/07/14 16:40:32;;;;;;;1.80;1.37;;;27.40;68.80;;;;;;4951283;28;20453;-83
2023/07/14 16:43:01;;;;;;;1.73;1.20;;;27.40;70.00;;;;;;4962384;28;20508;-85
2023/07/14 16:45:31;;;;;;;1.30;1.20;;;27.40;69.30;;;;;;4968617;28;20986;-84
2023/07/14 16:47:56;;;;;;;3.27;1.77;;;27.40;69.50;;;;;;4971607;28;20832;-84
2023/07/14 16:50:22;;;;;;;1.77;1.20;;;27.50;69.40;;;;;;4972255;28;20452;-84
2023/07/14 16:52:50;;;;;;;1.50;1.40;;;27.70;68.60;;;;;;4969869;28;20418;-84
2023/07/14 16:55:19;;;;;;;1.60;1.50;;;28.00;69.00;;;;;;4967374;28;21173;-84
2023/07/14 16:57:45;;;;;;;2.63;1.80;;;28.30;69.40;;;;;;4970198;28;20434;-85
2023/07/14 17:00:26;;;;;;;3.30;2.13;;;28.40;68.20;;;;;;4963795;28;20423;-84
2023/07/14 17:02:58;;;;;;;1.30;0.93;;;28.50;68.50;;;;;;4969969;28;20611;-84
2023/07/14 17:05:29;;;;;;;2.20;1.00;;;28.50;68.00;;;;;;4969107;28;20493;-83
2023/07/14 17:07:56;;;;;;;1.00;1.00;;;28.40;68.50;;;;;;4969869;28;20445;-85